ADDS METAR Data INFO
IDs: Format: Raw Decoded Include TAF

Data at: 0425 UTC 26 May 2018

KSAA 260415Z AUTO 13009KT 10SM CLR 13/M02 A3008 RMK AO2
KSAA 260355Z AUTO 19011KT 10SM CLR 16/M04 A3008 RMK AO2
KSAA 260335Z AUTO 19010KT 10SM CLR 17/M04 A3008 RMK AO2
KSAA 260315Z AUTO 18009KT 10SM CLR 17/M04 A3008 RMK AO2
KSAA 260255Z AUTO 19011KT 7SM CLR 17/M04 A3008 RMK AO2
KSAA 260235Z AUTO 19011KT 10SM CLR 19/M05 A3008 RMK AO2
KSAA 260215Z AUTO 19008KT 10SM CLR 21/M05 A3009 RMK AO2
KSAA 260155Z AUTO 18008KT 10SM CLR 23/M05 A3009 RMK AO2
KSAA 260135Z AUTO 16007KT 10SM CLR 25/M06 A3008 RMK AO2
KSAA 260115Z AUTO 17007KT 10SM CLR 25/M06 A3009 RMK AO2
KSAA 260055Z AUTO 18010KT 10SM SCT120 25/M05 A3009 RMK AO2
KSAA 260035Z AUTO 19007KT 10SM SCT120 25/M05 A3009 RMK AO2
KSAA 260015Z AUTO 18007KT 10SM SCT120 26/M05 A3009 RMK AO2
KSAA 252355Z AUTO 18008KT 10SM CLR 26/M05 A3010 RMK AO2
KSAA 252335Z AUTO 20004KT 10SM CLR 26/M05 A3011 RMK AO2
KSAA 252315Z AUTO 19008KT 10SM CLR 26/M06 A3011 RMK AO2
KSAA 252255Z AUTO 22007KT 10SM CLR 27/M06 A3011 RMK AO2
KSAA 252235Z AUTO 20012G17KT 10SM CLR 27/M06 A3011 RMK AO2
KSAA 252215Z AUTO 24013G17KT 10SM CLR 27/M06 A3012 RMK AO2
KSAA 252155Z AUTO 21009G19KT 10SM CLR 27/M06 A3013 RMK AO2
KSAA 252135Z AUTO 25009G18KT 122V032 10SM CLR 27/M06 A3013 RMK AO2
KSAA 252115Z AUTO 19008G15KT 162V242 10SM CLR 27/M06 A3013 RMK AO2
KSAA 252055Z AUTO 20010G16KT 162V222 10SM CLR 26/M06 A3014 RMK AO2
KSAA 252035Z AUTO 18009G14KT 10SM CLR 26/M05 A3014 RMK AO2
KSAA 252015Z AUTO 20011G21KT 182V262 10SM CLR 26/M05 A3015 RMK AO2
KSAA 251955Z AUTO 24010KT 222V282 10SM CLR 26/M04 A3016 RMK AO2
KSAA 251935Z AUTO 23009G16KT 10SM CLR 26/M05 A3016 RMK AO2
KSAA 251915Z AUTO 23011G15KT 10SM CLR 26/M05 A3017 RMK AO2
KSAA 251855Z AUTO 25009G21KT 10SM SCT120 26/M05 A3017 RMK AO2
KSAA 251835Z AUTO 23010G19KT 10SM SCT120 26/M05 A3017 RMK AO2
KSAA 251815Z AUTO 26009G16KT 212V272 10SM SCT110 26/M04 A3017 RMK AO2
KSAA 251755Z AUTO 23011G19KT 10SM SCT110 25/M04 A3018 RMK AO2
KSAA 251735Z AUTO 21005KT 10SM SCT110 23/M01 A3018 RMK AO2
KSAA 251715Z AUTO 29005KT 10SM CLR 23/M02 A3019 RMK AO2
KSAA 251655Z AUTO 32003KT 10SM CLR 22/00 A3020 RMK AO2
KSAA 251635Z AUTO 05004KT 10SM CLR 22/00 A3020 RMK AO2
KSAA 251615Z AUTO 09006KT 10SM CLR 22/01 A3020 RMK AO2
KSAA 251555Z AUTO 10008KT 10SM CLR 21/02 A3020 RMK AO2
KSAA 251535Z AUTO 14006KT 10SM CLR 19/01 A3021 RMK AO2
KSAA 251520Z AUTO 13010KT 10SM CLR 18/00 A3021 RMK AO2
KSAA 251455Z AUTO 14009KT 10SM CLR 17/00 A3021 RMK AO2
KSAA 251435Z AUTO 14009KT 10SM CLR 16/01 A3022 RMK AO2
KSAA 251415Z AUTO 13012KT 10SM CLR 14/01 A3022 RMK AO2
KSAA 251355Z AUTO 14010KT 10SM CLR 13/01 A3023 RMK AO2
KSAA 251335Z AUTO 14009KT 10SM CLR 12/00 A3023 RMK AO2
KSAA 251315Z AUTO 14006KT 10SM CLR 11/01 A3023 RMK AO2
KSAA 251255Z AUTO 15007KT 10SM CLR 09/01 A3024 RMK AO2
KSAA 251235Z AUTO 12007KT 10SM CLR 08/01 A3023 RMK AO2
KSAA 251215Z AUTO 15006KT 10SM CLR 06/01 A3023 RMK AO2
KSAA 251155Z AUTO 13005KT 10SM CLR 06/00 A3023 RMK AO2
KSAA 251135Z AUTO 10003KT 10SM CLR 06/00 A3023 RMK AO2
KSAA 251115Z AUTO 00000KT 10SM CLR 06/00 A3023 RMK AO2
KSAA 251055Z AUTO 00000KT 10SM CLR 06/01 A3023 RMK AO2
KSAA 251035Z AUTO 14003KT 10SM CLR 06/01 A3023 RMK AO2
KSAA 251015Z AUTO 13006KT 10SM CLR 07/01 A3022 RMK AO2
KSAA 250955Z AUTO 15004KT 10SM CLR 06/01 A3023 RMK AO2
KSAA 250935Z AUTO 17007KT 10SM CLR 07/01 A3022 RMK AO2
KSAA 250915Z AUTO 17008KT 10SM CLR 07/01 A3022 RMK AO2
KSAA 250855Z AUTO 16009KT 10SM CLR 07/01 A3022 RMK AO2
KSAA 250840Z AUTO 16010KT 10SM CLR 07/01 A3022 RMK AO2
KSAA 250815Z AUTO 17009KT 10SM CLR 07/01 A3022 RMK AO2
KSAA 250755Z AUTO 17003KT 10SM CLR 08/01 A3021 RMK AO2
KSAA 250740Z AUTO 13003KT 10SM CLR 08/01 A3022 RMK AO2
KSAA 250715Z AUTO 16007KT 10SM CLR 08/01 A3021 RMK AO2
KSAA 250655Z AUTO 17008KT 10SM CLR 08/02 A3022 RMK AO2
KSAA 250635Z AUTO 14005KT 10SM CLR 08/02 A3023 RMK AO2
KSAA 250615Z AUTO 16007KT 10SM CLR 08/02 A3023 RMK AO2
KSAA 250555Z AUTO 16008KT 10SM CLR 08/02 A3023 RMK AO2
KSAA 250535Z AUTO 15007KT 10SM CLR 08/02 A3023 RMK AO2
KSAA 250515Z AUTO 14006KT 10SM CLR 10/02 A3023 RMK AO2
KSAA 250455Z AUTO 13006KT 10SM SCT110 10/02 A3023 RMK AO2
KSAA 250435Z AUTO 08003KT 10SM OVC110 11/03 A3023 RMK AO2
KSAA 250415Z AUTO 00000KT 10SM BKN110 12/02 A3023 RMK AO2
KSAA 250355Z AUTO 22007KT 10SM CLR 13/01 A3022 RMK AO2
KSAA 250335Z AUTO 19008KT 10SM CLR 13/01 A3022 RMK AO2
KSAA 250315Z AUTO 20007KT 10SM CLR 13/01 A3021 RMK AO2
KSAA 250255Z AUTO 20003KT 10SM CLR 16/01 A3021 RMK AO2
KSAA 250235Z AUTO 29003KT 10SM SCT100 BKN120 17/01 A3021 RMK AO2
KSAA 250215Z AUTO 30010G14KT 10SM BKN100 BKN120 18/01 A3021 RMK AO2
KSAA 250155Z AUTO 22005KT 10SM SCT090 SCT120 17/00 A3021 RMK AO2
KSAA 250135Z AUTO 23005KT 10SM SCT095 SCT120 18/00 A3020 RMK AO2
KSAA 250115Z AUTO 25007KT 10SM SCT095 21/00 A3020 RMK AO2
KSAA 250055Z AUTO 24012G18KT 10SM BKN095 BKN110 22/M01 A3020 RMK AO2
KSAA 250035Z AUTO 24009G15KT 10SM SCT095 BKN110 21/M01 A3019 RMK AO2
KSAA 250015Z AUTO 24013G19KT 10SM SCT095 BKN120 22/M01 A3019 RMK AO2
KSAA 242355Z AUTO 26012G24KT 10SM SCT095 BKN120 22/M01 A3020 RMK AO2
KSAA 242335Z AUTO 26008G17KT 10SM SCT095 BKN120 22/M01 A3020 RMK AO2
KSAA 242315Z AUTO 24015G23KT 10SM BKN120 23/M01 A3020 RMK AO2 LTG DSNT NW
KSAA 242255Z AUTO 24013G20KT 10SM SCT090 SCT110 22/M01 A3020 RMK AO2
KSAA 242235Z AUTO 24016G23KT 10SM BKN100 23/M01 A3020 RMK AO2 LTG DSNT NW
KSAA 242215Z AUTO 23017G27KT 10SM BKN110 23/00 A3021 RMK AO2
KSAA 242155Z AUTO 25018G22KT 212V272 10SM BKN095 22/00 A3021 RMK AO2
KSAA 242135Z AUTO 25013G26KT 10SM BKN095 23/M01 A3022 RMK AO2
KSAA 242115Z AUTO 24014G24KT 10SM BKN095 23/00 A3022 RMK AO2
KSAA 242055Z AUTO 25015G23KT 222V282 10SM SCT085 23/00 A3022 RMK AO2
KSAA 242035Z AUTO 26015G22KT 10SM CLR 22/00 A3022 RMK AO2
KSAA 242015Z AUTO 24017G23KT 10SM SCT080 23/00 A3023 RMK AO2
KSAA 241955Z AUTO 25017G22KT 10SM SCT075 22/00 A3023 RMK AO2
KSAA 241940Z AUTO 27016G23KT 10SM SCT075 21/00 A3023 RMK AO2
KSAA 241915Z AUTO 24016G20KT 10SM SCT075 22/00 A3023 RMK AO2
KSAA 241855Z AUTO 22014G23KT 10SM SCT075 21/00 A3023 RMK AO2
KSAA 241835Z AUTO 24012G25KT 10SM CLR 21/00 A3023 RMK AO2
KSAA 241815Z AUTO 25015G20KT 10SM CLR 21/00 A3023 RMK AO2
KSAA 241755Z AUTO 22013G20KT 10SM CLR 20/00 A3023 RMK AO2
KSAA 241735Z AUTO 24012G22KT 10SM CLR 20/00 A3023 RMK AO2
KSAA 241715Z AUTO 24010G19KT 10SM CLR 20/00 A3023 RMK AO2
KSAA 241655Z AUTO 23013G23KT 10SM CLR 19/00 A3023 RMK AO2
KSAA 241635Z AUTO 25011G20KT 10SM CLR 18/00 A3023 RMK AO2